Old Mastic, New York
Current Conditions -  °F | °C
As of 5:14 PM on Monday 24 Nov 2014 (Local Time) from KHWV Reporting Station
Haze Haze  
Wind Chill: 59°   Ceiling: 800
Heat Index: 59°   Visibility: 6mi
Dew Point: 56°   Wind: 14mph
Humidity: 90%   Direction: 210°SSW
Pressure: 29.68"   Gusts: 24mph
Location:  40.7682°N, 72.8409°W
Report Text: KHWV 242214Z AUTO 21012G21KT 6SM BR OVC008 15/13 A2968 RMK AO2 T01500133 TSNO
Loading
Personal Weather Stations






























Interactive Weather Map New forecast layout! Learn more

10-Day Weather Forecast

Advertisements
Track Severe Weather on mobile